Time;durP1;ratioP1;P1;durP2;ratioP2;P2;SDS_P1;SDS_P2;PMS_P1;PMS_P2;Temp;Humidity;BMP_temperature;BMP_pressure;BME280_temperature;BME280_humidity;BME280_pressure;Samples;Min_cycle;Max_cycle;Signal;HPM_P1;HPM_P2
2023/04/05 00:00:12;;;;;;;;;26.67;22.33;;;;;8.82;45.17;101882.59;5059900;28;45258;-72
2023/04/05 00:02:39;;;;;;;;;27.00;21.67;;;;;8.39;45.18;101799.81;5042193;28;45495;-72
2023/04/05 00:05:05;;;;;;;;;23.33;22.00;;;;;8.81;45.43;101886.22;5059638;28;45771;-73
2023/04/05 00:07:33;;;;;;;;;20.33;19.00;;;;;8.68;45.32;101858.81;5059452;28;45360;-73
2023/04/05 00:09:59;;;;;;;;;21.67;21.67;;;;;8.47;45.55;101829.31;5041743;28;45425;-71
2023/04/05 00:12:24;;;;;;;;;25.67;20.33;;;;;9.01;45.34;101911.38;5041673;28;45546;-71
2023/04/05 00:14:50;;;;;;;;;26.67;22.33;;;;;9.04;45.57;101905.84;5058822;28;45870;-72
2023/04/05 00:17:16;;;;;;;;;21.33;20.33;;;;;8.17;45.42;101751.88;5041073;28;45698;-71
2023/04/05 00:19:43;;;;;;;;;23.00;20.33;;;;;8.68;45.01;101852.66;5059274;28;45469;-73
2023/04/05 00:22:09;;;;;;;;;22.67;20.00;;;;;8.90;44.89;101890.03;5059257;28;45618;-73
2023/04/05 00:24:37;;;;;;;;;21.00;20.00;;;;;8.51;45.19;101849.34;5041213;28;46440;-73
2023/04/05 00:27:03;;;;;;;;;26.33;22.33;;;;;8.96;44.99;101904.66;5059319;28;45428;-72
2023/04/05 00:29:28;;;;;;;;;16.00;14.00;;;;;8.99;45.22;101904.44;5059431;28;45265;-72
2023/04/05 00:31:55;;;;;;;;;20.33;18.67;;;;;8.96;44.97;101891.38;5058994;28;45593;-72
2023/04/05 00:34:20;;;;;;;;;19.33;18.33;;;;;8.84;45.14;101870.09;5059074;28;45661;-72
2023/04/05 00:36:46;;;;;;;;;20.33;20.33;;;;;8.89;45.10;101876.88;5058185;28;45341;-72
2023/04/05 00:39:11;;;;;;;;;20.33;20.33;;;;;9.04;44.77;101912.94;5042639;28;45436;-72
2023/04/05 00:41:36;;;;;;;;;19.33;18.67;;;;;8.98;45.38;101902.75;5060636;28;45268;-72
2023/04/05 00:44:02;;;;;;;;;25.00;21.00;;;;;8.44;44.68;101820.72;5058667;28;46420;-70
2023/04/05 00:46:28;;;;;;;;;19.33;18.00;;;;;8.96;44.85;101899.34;5059038;28;45278;-70
2023/04/05 00:48:54;;;;;;;;;17.33;16.33;;;;;8.90;45.07;101876.75;5059145;28;45231;-73
2023/04/05 00:51:19;;;;;;;;;22.67;19.00;;;;;9.00;44.78;101906.13;5040827;28;45681;-72
2023/04/05 00:53:46;;;;;;;;;18.00;16.67;;;;;8.74;44.83;101853.09;5040322;28;47327;-71
2023/04/05 00:56:13;;;;;;;;;19.33;19.33;;;;;8.96;44.83;101883.44;5058815;28;45465;-72
2023/04/05 00:58:41;;;;;;;;;22.67;19.33;;;;;9.00;44.96;101901.69;5058720;28;45557;-71
2023/04/05 01:01:12;;;;;;;;;17.33;16.00;;;;;7.88;45.14;101716.75;5059031;28;45250;-72
2023/04/05 01:03:43;;;;;;;;;26.67;22.00;;;;;8.26;45.06;101779.53;5058330;28;46567;-71
2023/04/05 01:06:23;;;;;;;;;28.33;21.67;;;;;8.91;45.33;101896.16;5058231;28;45396;-71
2023/04/05 01:09:34;;;;;;;;;16.00;16.00;;;;;8.95;45.08;101889.69;5058660;28;45392;-72
2023/04/05 01:12:03;;;;;;;;;19.67;18.33;;;;;8.90;44.75;101873.25;5042807;28;45304;-70
2023/04/05 01:14:29;;;;;;;;;21.00;20.00;;;;;8.91;44.74;101890.88;5058048;28;46192;-72
2023/04/05 01:16:57;;;;;;;;;19.67;19.00;;;;;8.81;45.34;101880.91;5058376;28;45293;-72
2023/04/05 01:19:28;;;;;;;;;17.00;16.33;;;;;8.75;45.10;101876.00;5040316;28;45326;-72
2023/04/05 01:22:36;;;;;;;;;15.67;15.33;;;;;8.70;45.66;101874.63;5040144;28;45444;-72
2023/04/05 01:25:40;;;;;;;;;23.67;22.33;;;;;8.65;45.61;101869.63;5058215;28;46775;-72
2023/04/05 01:28:42;;;;;;;;;25.00;19.00;;;;;8.54;46.19;101864.19;5058125;28;45535;-71
2023/04/05 01:31:18;;;;;;;;;20.33;17.00;;;;;8.52;46.22;101864.31;5058027;28;45343;-72
2023/04/05 01:34:10;;;;;;;;;19.33;19.33;;;;;7.40;46.12;101682.00;5058390;28;45448;-71
2023/04/05 01:36:53;;;;;;;;;17.67;16.33;;;;;8.30;45.84;101834.03;5057518;28;47154;-72
2023/04/05 01:39:20;;;;;;;;;24.00;18.33;;;;;7.59;45.82;101726.63;5040080;28;45536;-70
2023/04/05 01:41:46;;;;;;;;;22.33;18.67;;;;;8.34;45.45;101848.78;5058132;28;45258;-72
2023/04/05 01:44:11;;;;;;;;;25.33;21.67;;;;;7.91;45.53;101788.03;5040345;28;45475;-72
2023/04/05 01:46:36;;;;;;;;;16.67;16.00;;;;;8.28;45.98;101846.53;5039706;28;55376;-70
2023/04/05 01:49:02;;;;;;;;;19.67;18.33;;;;;8.37;45.10;101861.81;5058128;28;45322;-72
2023/04/05 01:51:28;;;;;;;;;24.67;20.00;;;;;7.83;45.32;101774.47;5039743;28;45515;-72
2023/04/05 01:53:53;;;;;;;;;21.00;19.00;;;;;7.52;45.53;101710.31;5039902;28;45553;-73
2023/04/05 01:56:18;;;;;;;;;17.00;15.67;;;;;8.09;45.65;101810.66;5056890;28;46820;-73
2023/04/05 01:58:44;;;;;;;;;18.00;16.67;;;;;8.23;45.40;101831.78;5039610;28;45317;-73
2023/04/05 02:01:09;;;;;;;;;21.00;19.00;;;;;8.31;45.46;101860.41;5058130;28;45514;-72
2023/04/05 02:03:35;;;;;;;;;17.67;17.67;;;;;7.99;45.54;101798.97;5040145;28;45295;-71
2023/04/05 02:06:00;;;;;;;;;20.67;20.67;;;;;8.25;45.39;101850.22;5039432;28;46431;-71
2023/04/05 02:08:26;;;;;;;;;16.00;16.00;;;;;7.99;45.53;101827.25;5039652;28;46370;-73
2023/04/05 02:10:52;;;;;;;;;29.67;21.67;;;;;8.05;46.00;101840.94;5057411;28;45860;-73
2023/04/05 02:13:18;;;;;;;;;23.00;18.67;;;;;7.74;46.00;101790.94;5057913;28;45339;-71
2023/04/05 02:15:50;;;;;;;;;21.67;19.00;;;;;7.74;45.90;101780.34;5057188;28;47587;-72
2023/04/05 02:18:21;;;;;;;;;17.00;15.00;;;;;7.84;46.02;101797.34;5057655;28;45325;-73
2023/04/05 02:20:51;;;;;;;;;20.33;18.00;;;;;7.96;46.46;101806.25;5039117;28;45554;-71
2023/04/05 02:23:19;;;;;;;;;22.67;19.00;;;;;8.13;45.53;101822.75;5057839;28;45329;-71
2023/04/05 02:25:45;;;;;;;;;21.33;18.00;;;;;8.17;45.60;101823.38;5057500;28;46837;-72
2023/04/05 02:28:10;;;;;;;;;24.00;19.00;;;;;7.67;45.63;101732.28;5057371;28;45414;-70
2023/04/05 02:30:36;;;;;;;;;18.00;14.67;;;;;7.86;45.58;101782.22;5039399;28;45679;-72
2023/04/05 02:33:02;;;;;;;;;19.33;15.33;;;;;8.19;45.58;101814.38;5039429;28;45574;-72
2023/04/05 02:35:28;;;;;;;;;26.67;24.00;;;;;8.00;45.17;101782.13;5056787;28;46782;-71
2023/04/05 02:37:53;;;;;;;;;18.00;17.00;;;;;8.18;45.75;101822.44;5039124;28;45410;-72
2023/04/05 02:40:20;;;;;;;;;25.67;19.00;;;;;8.05;45.35;101793.28;5058010;28;45360;-76
2023/04/05 02:42:45;;;;;;;;;20.00;17.33;;;;;7.88;45.30;101756.47;5039401;28;45460;-71
2023/04/05 02:45:11;;;;;;;;;21.33;18.00;;;;;8.02;45.33;101814.69;5057191;28;46811;-72
2023/04/05 02:47:36;;;;;;;;;23.00;15.33;;;;;7.09;45.68;101634.72;5057001;28;45278;-72
2023/04/05 02:50:01;;;;;;;;;23.00;20.33;;;;;7.81;45.87;101763.13;5057638;28;45163;-72
2023/04/05 02:52:27;;;;;;;;;24.00;17.67;;;;;7.95;46.13;101810.72;5057470;28;45273;-71
2023/04/05 02:54:52;;;;;;;;;14.33;14.00;;;;;7.47;46.30;101730.94;5056830;28;45488;-71
2023/04/05 02:57:17;;;;;;;;;17.67;17.67;;;;;7.92;46.43;101805.63;5056624;28;51838;-71
2023/04/05 02:59:43;;;;;;;;;24.67;18.00;;;;;7.87;46.12;101800.63;5038659;28;50262;-70
2023/04/05 03:02:09;;;;;;;;;16.00;14.00;;;;;7.64;46.18;101766.88;5038679;28;46938;-72
2023/04/05 03:04:35;;;;;;;;;19.33;14.67;;;;;7.81;46.43;101801.06;5056728;28;46023;-72
2023/04/05 03:07:02;;;;;;;;;21.00;18.67;;;;;7.76;46.33;101789.03;5056657;28;45317;-71
2023/04/05 03:09:32;;;;;;;;;21.67;18.67;;;;;7.82;46.44;101789.50;5060519;28;45327;-71
2023/04/05 03:12:02;;;;;;;;;22.00;20.33;;;;;7.61;46.50;101746.75;5042319;28;45399;-71
2023/04/05 03:14:28;;;;;;;;;19.67;18.33;;;;;7.73;46.59;101776.00;5060285;28;45735;-72
2023/04/05 03:16:54;;;;;;;;;15.67;13.00;;;;;7.62;46.93;101767.00;5042085;28;46007;-72
2023/04/05 03:19:21;;;;;;;;;24.33;19.33;;;;;7.75;46.92;101798.78;5060312;28;45541;-71
2023/04/05 03:21:47;;;;;;;;;24.00;21.67;;;;;7.53;46.85;101741.09;5042228;28;45581;-72
2023/04/05 03:24:12;;;;;;;;;22.00;15.33;;;;;7.37;47.04;101711.28;5060243;28;46566;-72
2023/04/05 03:26:37;;;;;;;;;26.00;19.67;;;;;7.82;47.08;101784.22;5060196;28;45288;-72
2023/04/05 03:29:03;;;;;;;;;19.33;18.00;;;;;7.87;46.98;101802.44;5060294;28;45841;-72
2023/04/05 03:31:29;;;;;;;;;25.33;21.33;;;;;7.89;46.62;101801.38;5060344;28;45201;-71
2023/04/05 03:33:54;;;;;;;;;17.67;17.67;;;;;7.44;47.40;101741.72;5060191;28;46438;-72
2023/04/05 03:36:20;;;;;;;;;22.67;20.33;;;;;7.74;47.24;101794.44;5059745;28;45263;-72
2023/04/05 03:38:45;;;;;;;;;21.67;19.33;;;;;7.77;47.18;101796.88;5060298;28;45492;-72
2023/04/05 03:41:11;;;;;;;;;22.67;20.00;;;;;7.75;47.52;101804.06;5059662;28;45360;-71
2023/04/05 03:43:36;;;;;;;;;24.00;20.33;;;;;7.72;47.69;101803.44;5059861;28;46497;-72
2023/04/05 03:46:02;;;;;;;;;21.67;19.33;;;;;7.36;47.81;101765.16;5041576;28;46181;-72
2023/04/05 03:48:27;;;;;;;;;15.00;13.00;;;;;6.78;48.09;101683.38;5041965;28;45341;-72
2023/04/05 03:50:53;;;;;;;;;26.67;24.33;;;;;7.50;48.13;101804.81;5041924;28;45372;-71
2023/04/05 03:53:18;;;;;;;;;16.00;14.67;;;;;7.54;47.86;101813.41;5059671;28;46354;-70
2023/04/05 03:55:48;;;;;;;;;20.67;20.33;;;;;7.20;47.81;101759.13;5041664;28;45517;-71
2023/04/05 03:58:14;;;;;;;;;24.00;21.00;;;;;7.59;47.65;101798.06;5059925;28;45250;-71
2023/04/05 04:00:39;;;;;;;;;24.67;19.67;;;;;7.23;47.47;101743.09;5041478;28;45532;-71
2023/04/05 04:03:05;;;;;;;;;14.67;12.00;;;;;7.60;47.70;101805.91;5059435;28;46610;-72
2023/04/05 04:05:31;;;;;;;;;23.67;20.67;;;;;7.35;47.55;101752.88;5059228;28;45384;-70
2023/04/05 04:07:57;;;;;;;;;23.67;17.33;;;;;7.17;47.47;101711.75;5059522;28;45412;-70
2023/04/05 04:10:22;;;;;;;;;21.67;20.33;;;;;7.33;47.27;101728.31;5059117;28;45449;-70
2023/04/05 04:12:47;;;;;;;;;18.67;17.00;;;;;7.56;47.29;101767.38;5059546;28;45746;-72
2023/04/05 04:15:13;;;;;;;;;26.67;23.00;;;;;7.67;47.61;101802.88;5059232;28;45434;-71
2023/04/05 04:17:38;;;;;;;;;28.67;23.00;;;;;7.67;47.93;101794.94;5059162;28;45392;-70
2023/04/05 04:20:09;;;;;;;;;22.00;20.33;;;;;7.15;47.79;101714.47;5058288;28;45348;-71
2023/04/05 04:22:37;;;;;;;;;24.67;24.67;;;;;7.73;48.01;101791.88;5059202;28;45610;-70
2023/04/05 04:25:06;;;;;;;;;32.00;26.33;;;;;7.77;47.48;101807.47;5059122;28;45427;-71
2023/04/05 04:27:31;;;;;;;;;26.00;22.67;;;;;6.87;47.21;101656.41;5041186;28;45542;-71
2023/04/05 04:30:00;;;;;;;;;20.33;19.00;;;;;7.41;47.60;101746.34;5060041;28;45203;-73
2023/04/05 04:32:46;;;;;;;;;24.33;20.67;;;;;7.26;47.80;101704.06;5060431;28;46584;-73
2023/04/05 04:35:17;;;;;;;;;23.00;23.00;;;;;7.63;47.41;101758.09;5059491;28;45649;-72
2023/04/05 04:37:46;;;;;;;;;25.67;24.67;;;;;7.08;47.70;101654.16;5058899;28;45550;-73
2023/04/05 04:40:21;;;;;;;;;25.33;21.33;;;;;7.58;48.31;101739.00;5040489;28;45465;-75
2023/04/05 04:42:47;;;;;;;;;24.00;21.33;;;;;7.46;48.52;101721.31;5040642;28;48078;-73
2023/04/05 04:45:21;;;;;;;;;24.67;20.67;;;;;7.96;49.12;101791.22;5058745;28;45322;-72
2023/04/05 04:47:48;;;;;;;;;23.67;22.00;;;;;6.94;49.58;101618.88;5058610;28;45481;-70
2023/04/05 04:50:14;;;;;;;;;31.67;25.33;;;;;7.44;49.48;101723.19;5058919;28;45474;-72
2023/04/05 04:52:41;;;;;;;;;28.33;23.00;;;;;7.96;49.42;101785.94;5058187;28;46417;-72
2023/04/05 04:55:08;;;;;;;;;26.00;22.00;;;;;7.78;49.55;101766.81;5040370;28;45315;-71
2023/04/05 04:57:34;;;;;;;;;29.50;26.50;;;;;7.65;49.98;101749.22;5059534;28;45463;-72
2023/04/05 04:59:59;;;;;;;;;32.00;27.33;;;;;7.12;50.25;101672.38;5059564;28;45285;-73
2023/04/05 05:02:26;;;;;;;;;28.67;24.67;;;;;7.79;50.17;101783.53;5058304;28;45879;-73
2023/04/05 05:04:51;;;;;;;;;28.67;26.00;;;;;7.83;50.59;101779.78;5058852;28;45594;-73
2023/04/05 05:07:18;;;;;;;;;25.00;24.00;;;;;7.85;50.38;101784.00;5058270;28;45342;-72
2023/04/05 05:09:44;;;;;;;;;24.00;22.33;;;;;7.69;49.88;101748.06;5040688;28;45590;-73
2023/04/05 05:12:10;;;;;;;;;28.33;26.00;;;;;7.48;50.36;101702.69;5058034;28;46387;-72
2023/04/05 05:14:35;;;;;;;;;24.33;21.00;;;;;7.80;50.47;101761.41;5058275;28;45397;-73
2023/04/05 05:17:01;;;;;;;;;31.00;27.67;;;;;7.65;50.22;101741.28;5058340;28;45828;-73
2023/04/05 05:19:27;;;;;;;;;30.00;23.67;;;;;7.59;49.95;101729.25;5058546;28;45328;-72
2023/04/05 05:21:53;;;;;;;;;24.67;22.00;;;;;7.66;49.67;101724.44;5057760;28;45722;-71
2023/04/05 05:24:19;;;;;;;;;32.67;27.33;;;;;7.85;50.41;101761.97;5039655;28;45378;-72
2023/04/05 05:26:45;;;;;;;;;27.67;25.00;;;;;7.43;49.94;101695.03;5058204;28;45238;-73
2023/04/05 05:29:10;;;;;;;;;26.00;25.33;;;;;7.95;50.24;101778.94;5039731;28;45516;-71
2023/04/05 05:31:36;;;;;;;;;16.00;16.00;;;;;7.98;50.41;101783.19;5054869;28;46484;-81
2023/04/05 05:34:01;;;;;;;;;21.33;20.67;;;;;6.98;50.17;101616.88;5056761;28;45415;-72
2023/04/05 05:36:26;;;;;;;;;39.33;30.67;;;;;7.94;50.06;101764.00;5057738;28;45890;-71
2023/04/05 05:38:53;;;;;;;;;32.00;30.33;;;;;8.04;50.17;101799.53;5057595;28;45396;-75
2023/04/05 05:41:18;;;;;;;;;30.33;25.67;;;;;8.07;49.74;101788.72;5058444;28;46081;-72
2023/04/05 05:43:44;;;;;;;;;29.00;25.67;;;;;8.02;49.77;101771.47;5038512;28;45546;-72
2023/04/05 05:46:09;;;;;;;;;28.33;25.00;;;;;7.90;49.51;101757.22;5058036;28;45859;-73
2023/04/05 05:48:35;;;;;;;;;24.00;22.67;;;;;7.58;49.42;101695.81;5057453;28;45408;-74
2023/04/05 05:51:01;;;;;;;;;26.33;25.67;;;;;7.81;49.46;101721.63;5056139;28;46472;-72
2023/04/05 05:53:26;;;;;;;;;34.33;28.00;;;;;8.21;49.38;101778.06;5056428;28;45468;-73
2023/04/05 05:55:53;;;;;;;;;29.00;25.67;;;;;7.38;49.43;101623.03;5039812;28;45331;-74
2023/04/05 05:58:19;;;;;;;;;27.00;26.00;;;;;7.85;49.11;101696.63;5057093;28;45243;-74
2023/04/05 06:00:45;;;;;;;;;30.00;25.67;;;;;8.44;49.10;101786.28;5030462;28;48293;-72
2023/04/05 06:03:12;;;;;;;;;29.33;27.33;;;;;7.82;48.82;101667.72;5057793;28;45179;-72
2023/04/05 06:05:37;;;;;;;;;31.67;26.67;;;;;8.51;48.11;101774.28;5057254;28;45425;-72
2023/04/05 06:08:03;;;;;;;;;30.00;29.00;;;;;7.90;48.36;101669.84;5057406;28;45444;-73
2023/04/05 06:10:29;;;;;;;;;28.33;24.67;;;;;8.37;47.33;101742.59;5055058;28;48089;-72
2023/04/05 06:12:54;;;;;;;;;20.33;20.33;;;;;8.44;46.68;101752.69;5037276;28;45271;-72
2023/04/05 06:15:20;;;;;;;;;30.67;27.33;;;;;8.72;46.66;101790.53;5052316;28;45261;-72
2023/04/05 06:17:45;;;;;;;;;32.33;27.67;;;;;8.46;46.53;101737.53;5051994;28;45289;-74
2023/04/05 06:20:11;;;;;;;;;28.67;27.33;;;;;8.89;47.01;101792.00;5053072;28;45967;-72
2023/04/05 06:22:39;;;;;;;;;24.00;22.00;;;;;8.93;46.19;101773.09;5043026;28;46455;-72
2023/04/05 06:25:06;;;;;;;;;24.67;24.33;;;;;8.70;45.91;101719.06;5058575;28;45502;-73
2023/04/05 06:27:31;;;;;;;;;31.67;26.67;;;;;9.23;45.55;101796.63;5041349;28;45599;-75
2023/04/05 06:29:59;;;;;;;;;30.00;25.33;;;;;8.74;45.14;101683.41;5057513;28;52794;-74
2023/04/05 06:32:24;;;;;;;;;35.33;29.67;;;;;10.00;44.95;101797.16;5057154;28;45289;-71
2023/04/05 06:34:50;;;;;;;;;29.00;25.67;;;;;9.72;44.04;101673.56;5056800;28;45503;-73
2023/04/05 06:37:15;;;;;;;;;36.00;29.33;;;;;10.97;43.10;101802.13;5057444;28;45427;-73
2023/04/05 06:39:41;;;;;;;;;36.00;31.33;;;;;11.47;42.15;101789.28;5055116;28;46520;-72
2023/04/05 06:42:06;;;;;;;;;29.33;27.67;;;;;11.81;40.95;101777.59;5056093;28;45544;-73
2023/04/05 06:44:31;;;;;;;;;26.33;21.00;;;;;12.40;40.05;101787.69;5056650;28;45224;-74
2023/04/05 06:46:57;;;;;;;;;28.67;25.00;;;;;12.62;38.76;101745.88;5057132;28;45290;-74
2023/04/05 06:49:22;;;;;;;;;33.67;29.00;;;;;13.14;37.23;101781.34;5055606;28;45779;-74
2023/04/05 06:51:48;;;;;;;;;31.33;29.33;;;;;13.43;36.62;101774.31;5048310;28;45489;-73
2023/04/05 06:54:14;;;;;;;;;33.67;31.00;;;;;13.97;36.67;101789.81;5057474;28;45306;-72
2023/04/05 06:56:39;;;;;;;;;28.67;28.67;;;;;14.46;35.20;101765.75;5051028;28;45503;-74
2023/04/05 06:59:05;;;;;;;;;29.33;28.00;;;;;15.17;34.60;101769.53;5069807;28;45691;-73
2023/04/05 07:01:30;;;;;;;;;29.33;27.33;;;;;15.05;32.68;101682.38;5078007;28;45445;-74
2023/04/05 07:03:56;;;;;;;;;32.00;29.67;;;;;15.98;32.40;101807.13;5059857;28;45393;-74
2023/04/05 07:06:22;;;;;;;;;26.33;23.00;;;;;16.21;32.17;101756.53;5059109;28;45497;-74
2023/04/05 07:08:48;;;;;;;;;31.00;26.33;;;;;17.16;31.41;101800.44;5057019;28;46572;-74
2023/04/05 07:11:14;;;;;;;;;20.00;20.00;;;;;17.34;30.06;101750.97;5055128;28;45542;-74
2023/04/05 07:13:39;;;;;;;;;36.00;32.33;;;;;17.11;29.37;101680.03;5056530;28;45419;-74
2023/04/05 07:16:05;;;;;;;;;31.33;26.67;;;;;17.55;29.08;101683.28;5056495;28;45599;-76
2023/04/05 07:18:33;;;;;;;;;28.33;25.33;;;;;18.56;28.17;101801.38;5037358;28;47844;-74
2023/04/05 07:20:59;;;;;;;;;28.33;26.33;;;;;19.00;27.89;101804.50;5053013;28;45513;-73
2023/04/05 07:23:26;;;;;;;;;28.00;26.33;;;;;19.11;27.54;101746.69;5050223;28;45375;-76
2023/04/05 07:25:52;;;;;;;;;26.67;26.67;;;;;19.78;26.92;101786.63;5041332;28;45298;-76
2023/04/05 07:28:17;;;;;;;;;29.33;28.33;;;;;20.10;26.52;101759.38;5058941;28;45917;-75
2023/04/05 07:30:42;;;;;;;;;34.67;32.00;;;;;20.90;25.81;101802.03;5042985;28;46202;-74
2023/04/05 07:33:08;;;;;;;;;29.33;24.33;;;;;20.95;25.60;101734.72;5048325;28;45487;-74
2023/04/05 07:35:33;;;;;;;;;39.67;33.00;;;;;20.14;24.83;101523.09;5055023;28;45386;-74
2023/04/05 07:37:58;;;;;;;;;33.67;29.00;;;;;22.22;23.73;101784.66;5036922;28;47540;-74
2023/04/05 07:40:24;;;;;;;;;36.67;32.00;;;;;20.72;23.33;101478.09;5056126;28;45438;-74
2023/04/05 07:42:49;;;;;;;;;34.00;30.00;;;;;22.90;22.81;101804.81;5056827;28;45271;-72
2023/04/05 07:45:14;;;;;;;;;32.00;28.67;;;;;23.11;22.43;101801.16;5057548;28;45459;-74
2023/04/05 07:47:40;;;;;;;;;34.67;25.67;;;;;22.40;22.44;101659.53;5056313;28;46441;-74
2023/04/05 07:50:06;;;;;;;;;32.67;31.33;;;;;23.47;21.25;101794.63;5054783;28;45344;-76
2023/04/05 07:52:31;;;;;;;;;29.00;24.67;;;;;23.47;21.04;101752.06;5056312;28;45340;-74
2023/04/05 07:54:57;;;;;;;;;29.67;28.00;;;;;23.29;21.19;101687.50;5057679;28;45317;-74
2023/04/05 07:57:22;;;;;;;;;34.00;29.33;;;;;23.92;20.29;101750.50;5041879;28;46702;-75
2023/04/05 07:59:49;;;;;;;;;26.00;24.33;;;;;24.06;20.32;101731.50;5059584;28;45522;-76
2023/04/05 08:02:15;;;;;;;;;29.33;28.33;;;;;24.57;20.54;101740.66;5060019;28;45298;-75
2023/04/05 08:04:41;;;;;;;;;26.67;23.67;;;;;25.06;19.46;101774.66;5058410;28;45376;-75
2023/04/05 08:07:06;;;;;;;;;28.00;28.00;;;;;25.39;19.27;101781.84;5059224;28;46494;-74
2023/04/05 08:09:31;;;;;;;;;29.67;29.00;;;;;25.54;19.49;101787.84;5060254;28;45255;-75
2023/04/05 08:11:56;;;;;;;;;33.67;31.00;;;;;25.23;19.12;101700.69;5059716;28;45462;-77
2023/04/05 08:14:22;;;;;;;;;25.67;22.33;;;;;25.48;18.92;101707.03;5042042;28;45601;-75
2023/04/05 08:16:49;;;;;;;;;31.00;28.33;;;;;26.10;18.43;101778.94;5042628;28;46453;-77
2023/04/05 08:19:15;;;;;;;;;28.33;25.00;;;;;26.21;18.26;101785.53;5060275;28;45670;-74
2023/04/05 08:21:40;;;;;;;;;27.67;27.33;;;;;26.23;18.32;101787.00;5041403;28;45355;-74
2023/04/05 08:24:06;;;;;;;;;31.67;29.33;;;;;26.21;17.95;101772.75;5041457;28;45389;-76
2023/04/05 08:26:31;;;;;;;;;27.67;25.67;;;;;26.12;17.88;101774.09;5041064;28;47282;-79
2023/04/05 08:28:56;;;;;;;;;30.33;29.00;;;;;25.95;17.04;101745.72;5059611;28;45333;-76
2023/04/05 08:31:22;;;;;;;;;29.33;27.67;;;;;26.28;17.50;101787.16;5060984;28;45328;-74
2023/04/05 08:33:47;;;;;;;;;28.33;26.67;;;;;26.18;17.17;101778.63;5061744;28;45558;-75
2023/04/05 08:36:13;;;;;;;;;28.67;27.33;;;;;25.27;17.10;101656.50;5079327;28;46177;-78
2023/04/05 08:38:38;;;;;;;;;29.00;26.00;;;;;25.17;17.37;101658.84;5079592;28;45365;-74
2023/04/05 08:41:13;;;;;;;;;32.33;28.33;;;;;25.77;17.70;101776.44;5055458;28;45280;-75
2023/04/05 08:43:56;;;;;;;;;23.33;23.00;;;;;25.44;17.77;101738.50;5059133;28;45438;-75
2023/04/05 08:46:22;;;;;;;;;29.33;27.67;;;;;25.76;17.30;101770.16;5058701;28;45452;-75
2023/04/05 08:48:48;;;;;;;;;25.67;24.33;;;;;25.37;17.45;101699.56;5041036;28;45549;-75
2023/04/05 08:51:18;;;;;;;;;28.33;23.67;;;;;25.96;17.22;101759.09;5059239;28;45436;-75
2023/04/05 08:53:43;;;;;;;;;26.33;26.33;;;;;26.37;16.53;101783.13;5040908;28;45341;-73
2023/04/05 08:56:10;;;;;;;;;30.00;27.33;;;;;26.43;16.74;101777.81;5058941;28;45491;-75
2023/04/05 08:58:38;;;;;;;;;31.00;27.67;;;;;26.47;16.61;101787.25;5058537;28;45499;-73
2023/04/05 09:01:05;;;;;;;;;32.00;28.00;;;;;26.65;16.29;101790.00;5040203;28;45303;-76
2023/04/05 09:03:37;;;;;;;;;26.00;24.33;;;;;25.77;15.99;101673.75;5041122;28;45451;-76
2023/04/05 09:06:10;;;;;;;;;19.00;18.00;;;;;26.18;16.59;101756.84;5058563;28;46573;-74
2023/04/05 09:08:37;;;;;;;;;25.00;23.00;;;;;26.64;15.90;101799.25;5058213;28;45418;-75
2023/04/05 09:11:04;;;;;;;;;29.00;21.67;;;;;26.64;16.05;101750.16;5058678;28;45582;-75
2023/04/05 09:13:30;;;;;;;;;23.67;21.67;;;;;26.35;15.91;101687.09;5058943;28;45529;-76
2023/04/05 09:15:56;;;;;;;;;23.00;23.00;;;;;27.25;15.43;101784.75;5057936;28;46519;-76
2023/04/05 09:18:22;;;;;;;;;22.67;20.33;;;;;26.90;15.17;101683.53;5039603;28;45607;-75
2023/04/05 09:20:47;;;;;;;;;26.00;24.67;;;;;27.75;14.82;101779.03;5058230;28;45322;-75
2023/04/05 09:23:12;;;;;;;;;26.33;24.67;;;;;27.66;14.34;101712.97;5070403;28;45324;-75
2023/04/05 09:25:39;;;;;;;;;29.00;26.33;;;;;28.54;14.31;101787.88;5078149;28;55315;-74
2023/04/05 09:28:06;;;;;;;;;23.33;23.33;;;;;29.07;14.18;101754.88;5078467;28;45325;-75
2023/04/05 09:30:32;;;;;;;;;21.00;21.00;;;;;30.05;13.09;101785.81;5079810;28;45443;-74
2023/04/05 09:32:58;;;;;;;;;23.67;21.67;;;;;30.79;12.96;101789.19;5078522;28;45217;-74
2023/04/05 09:35:27;;;;;;;;;24.33;22.33;;;;;31.47;12.72;101790.63;5059865;28;47054;-76
2023/04/05 09:38:01;;;;;;;;;23.33;22.00;;;;;32.04;12.38;101768.09;5077932;28;45357;-77
2023/04/05 09:40:41;;;;;;;;;28.00;26.33;;;;;32.54;11.57;101780.59;5042896;28;45480;-74
2023/04/05 09:43:07;;;;;;;;;24.00;23.33;;;;;32.51;10.96;101701.28;5058039;28;45481;-74
2023/04/05 09:45:41;;;;;;;;;21.00;19.00;;;;;33.47;11.17;101762.31;5039400;28;46436;-76
2023/04/05 09:48:08;;;;;;;;;24.33;20.67;;;;;33.84;10.35;101767.66;5039355;28;45591;-74
2023/04/05 09:50:34;;;;;;;;;23.33;21.33;;;;;33.47;10.72;101660.31;5039789;28;45390;-76
2023/04/05 09:53:18;;;;;;;;;19.67;19.67;;;;;34.41;10.43;101766.50;5039190;28;45598;-76
2023/04/05 09:55:43;;;;;;;;;21.67;20.33;;;;;34.47;9.81;101742.50;5058563;28;45897;-76
2023/04/05 09:58:12;;;;;;;;;21.33;20.33;;;;;34.80;9.82;101754.81;5057142;28;45380;-76
2023/04/05 10:00:51;;;;;;;;;27.00;21.33;;;;;34.74;9.51;101758.69;5057831;28;45561;-76
2023/04/05 10:03:17;;;;;;;;;27.00;20.67;;;;;34.65;10.06;101760.41;5058466;28;45558;-74
2023/04/05 10:05:43;;;;;;;;;26.00;22.67;;;;;33.92;10.30;101724.88;5057923;28;45663;-76
2023/04/05 10:08:08;;;;;;;;;22.33;20.67;;;;;33.23;10.41;101748.16;5058397;28;45428;-76
2023/04/05 10:10:44;;;;;;;;;19.00;19.00;;;;;31.39;10.40;101590.44;5058052;28;45323;-73
2023/04/05 10:13:10;;;;;;;;;20.00;20.00;;;;;31.25;11.03;101754.94;5058360;28;45487;-76
2023/04/05 10:15:35;;;;;;;;;24.33;23.67;;;;;30.19;11.58;101746.00;5039862;28;46109;-77
2023/04/05 10:18:10;;;;;;;;;23.33;22.33;;;;;28.65;11.98;101681.16;5053034;28;45341;-75
2023/04/05 10:20:40;;;;;;;;;22.67;22.67;;;;;28.28;13.40;101757.19;5054334;28;45505;-77
2023/04/05 10:23:16;;;;;;;;;30.33;24.33;;;;;27.32;13.17;101768.28;5054581;28;45238;-76
2023/04/05 10:26:07;;;;;;;;;29.00;26.67;;;;;26.22;14.26;101766.22;5056718;28;46442;-77
2023/04/05 10:28:36;;;;;;;;;25.33;23.00;;;;;25.24;14.68;101762.25;5057440;28;45459;-75
2023/04/05 10:31:39;;;;;;;;;22.67;20.33;;;;;24.21;15.30;101759.25;5039723;28;45499;-75
2023/04/05 10:34:23;;;;;;;;;37.33;32.33;;;;;23.11;16.99;101733.34;5050280;28;46067;-75
2023/04/05 10:36:55;;;;;;;;;35.00;30.00;;;;;22.31;17.46;101750.16;5056977;28;46502;-75
2023/04/05 10:39:39;;;;;;;;;35.67;31.67;;;;;21.43;18.22;101748.66;5057660;28;45312;-74
2023/04/05 10:42:12;;;;;;;;;26.67;26.33;;;;;20.96;18.75;101745.34;5057944;28;45169;-75
2023/04/05 10:44:38;;;;;;;;;36.67;32.67;;;;;19.92;18.92;101653.59;5039717;28;45630;-75
2023/04/05 10:47:05;;;;;;;;;32.33;30.00;;;;;19.79;19.58;101707.34;5057116;28;46082;-77
2023/04/05 10:49:47;;;;;;;;;32.67;28.67;;;;;19.57;19.62;101723.34;5039643;28;45423;-72
2023/04/05 10:52:13;;;;;;;;;32.67;28.00;;;;;19.12;19.79;101705.22;5057826;28;45411;-74
2023/04/05 10:54:39;;;;;;;;;35.00;27.67;;;;;19.11;19.62;101736.75;5039567;28;45548;-75
2023/04/05 10:57:07;;;;;;;;;22.00;21.00;;;;;17.25;20.28;101472.47;5057761;28;46389;-76
2023/04/05 10:59:34;;;;;;;;;28.67;25.33;;;;;17.57;20.44;101589.84;5060040;28;45352;-76
2023/04/05 11:02:01;;;;;;;;;23.67;22.67;;;;;17.43;21.42;101675.72;5039439;28;45274;-76
2023/04/05 11:04:26;;;;;;;;;33.67;32.00;;;;;16.85;22.23;101620.19;5057143;28;45591;-73
2023/04/05 11:07:15;;;;;;;;;32.67;29.33;;;;;17.19;22.49;101723.03;5038719;28;48559;-75
2023/04/05 11:10:00;;;;;;;;;30.67;26.67;;;;;17.09;22.50;101722.34;5038169;28;45494;-72
2023/04/05 11:12:51;;;;;;;;;38.67;33.33;;;;;17.05;22.94;101723.66;5057151;28;45396;-73
2023/04/05 11:15:28;;;;;;;;;32.00;28.67;;;;;16.93;22.44;101723.09;5039271;28;45414;-73
2023/04/05 11:18:11;;;;;;;;;33.00;30.00;;;;;16.81;22.66;101718.16;5057128;28;45608;-76